createdAt,value
2023-03-08T00:00:29.901Z,99340.34
2023-03-08T00:05:57.022Z,99331.84
2023-03-08T00:08:28.124Z,99316.69
2023-03-08T00:10:59.941Z,99324.69
2023-03-08T00:13:34.280Z,99318.47
2023-03-08T00:16:11.955Z,99316.03
2023-03-08T00:18:43.529Z,99317.00
2023-03-08T00:21:16.741Z,99307.53
2023-03-08T00:23:53.486Z,99310.97
2023-03-08T00:26:42.174Z,99309.53
2023-03-08T00:29:22.101Z,99318.47
2023-03-08T00:32:16.192Z,99306.09
2023-03-08T00:35:00.874Z,99301.34
2023-03-08T00:38:00.651Z,99300.88
2023-03-08T00:43:28.430Z,99299.53
2023-03-08T00:46:14.281Z,99292.53
2023-03-08T00:48:58.965Z,99275.56
2023-03-08T00:51:45.040Z,99271.81
2023-03-08T00:54:17.364Z,99266.75
2023-03-08T00:56:56.146Z,99260.56
2023-03-08T00:59:31.330Z,99253.38
2023-03-08T01:02:08.472Z,99244.09
2023-03-08T01:04:54.301Z,99249.16
2023-03-08T01:10:24.756Z,99242.31
2023-03-08T01:13:15.539Z,99230.06
2023-03-08T01:16:15.706Z,99229.41
2023-03-08T01:21:41.911Z,99208.38
2023-03-08T01:24:11.983Z,99207.72
2023-03-08T01:26:46.652Z,99205.91
2023-03-08T01:29:19.153Z,99204.13
2023-03-08T01:31:50.286Z,99195.63
2023-03-08T01:34:32.811Z,99181.25
2023-03-08T01:37:17.613Z,99177.53
2023-03-08T01:39:49.218Z,99175.75
2023-03-08T01:42:28.242Z,99179.66
2023-03-08T01:45:13.187Z,99167.44
2023-03-08T01:47:56.258Z,99146.50
2023-03-08T01:50:34.826Z,99148.84
2023-03-08T01:53:09.626Z,99137.25
2023-03-08T01:55:42.603Z,99128.13
2023-03-08T01:58:09.375Z,99114.56
2023-03-08T02:00:38.316Z,99103.31
2023-03-08T02:03:07.682Z,99093.38
2023-03-08T02:05:36.625Z,99093.22
2023-03-08T02:08:03.280Z,99082.63
2023-03-08T02:10:30.077Z,99075.91
2023-03-08T02:12:56.784Z,99067.63
2023-03-08T02:15:26.940Z,99062.25
2023-03-08T02:17:53.703Z,99061.25
2023-03-08T02:20:32.529Z,99055.88
2023-03-08T02:23:09.359Z,99048.88
2023-03-08T02:25:35.970Z,99047.06
2023-03-08T02:28:03.539Z,99045.13
2023-03-08T02:30:34.216Z,99037.47
2023-03-08T02:33:00.887Z,99036.50
2023-03-08T02:35:27.846Z,99034.03
2023-03-08T02:37:54.577Z,99028.97
2023-03-08T02:40:21.390Z,99032.25
2023-03-08T02:42:48.142Z,99028.66
2023-03-08T02:45:14.987Z,99017.91
2023-03-08T02:47:42.554Z,99006.34
2023-03-08T02:50:09.571Z,99001.13
2023-03-08T02:52:36.233Z,98997.69
2023-03-08T02:55:02.959Z,98989.53
2023-03-08T02:57:29.627Z,98993.94
2023-03-08T02:59:56.418Z,98982.72
2023-03-08T03:02:23.168Z,98972.09
2023-03-08T03:04:49.976Z,98960.88
2023-03-08T03:07:21.609Z,98964.13
2023-03-08T03:09:48.472Z,98966.41
2023-03-08T03:12:15.455Z,98949.31
2023-03-08T03:14:42.276Z,98953.03
2023-03-08T03:17:09.132Z,98947.00
2023-03-08T03:19:37.434Z,98951.59
2023-03-08T03:22:04.397Z,98943.78
2023-03-08T03:24:31.176Z,98931.56
2023-03-08T03:26:58.019Z,98931.25
2023-03-08T03:29:24.870Z,98917.22
2023-03-08T03:31:51.613Z,98921.47
2023-03-08T03:34:18.387Z,98907.31
2023-03-08T03:36:45.260Z,98909.28
2023-03-08T03:39:11.981Z,98904.22
2023-03-08T03:41:38.694Z,98901.16
2023-03-08T03:44:05.594Z,98901.31
2023-03-08T03:46:32.489Z,98889.94
2023-03-08T03:48:59.587Z,98888.78
2023-03-08T03:51:26.313Z,98871.69
2023-03-08T03:53:53.140Z,98879.50
2023-03-08T03:56:21.262Z,98871.50
2023-03-08T03:58:48.487Z,98858.66
2023-03-08T04:01:18.408Z,98846.59
2023-03-08T04:03:45.181Z,98856.38
2023-03-08T04:06:14.360Z,98851.16
2023-03-08T04:08:42.726Z,98851.50
2023-03-08T04:11:10.310Z,98849.22
2023-03-08T04:13:37.614Z,98845.50
2023-03-08T04:16:07.672Z,98844.84
2023-03-08T04:18:34.392Z,98845.00
2023-03-08T04:21:01.161Z,98838.16
2023-03-08T04:23:27.946Z,98838.16
2023-03-08T04:25:54.799Z,98827.28
2023-03-08T04:28:21.674Z,98833.47
2023-03-08T04:30:48.355Z,98825.00
2023-03-08T04:33:15.104Z,98830.72
2023-03-08T04:35:42.023Z,98830.53
2023-03-08T04:38:08.784Z,98832.81
2023-03-08T04:40:57.872Z,98821.13
2023-03-08T04:43:24.990Z,98813.31
2023-03-08T04:45:51.785Z,98811.66
2023-03-08T04:48:18.572Z,98806.97
2023-03-08T04:50:45.349Z,98799.47
2023-03-08T04:53:12.155Z,98796.38
2023-03-08T04:55:39.139Z,98784.84
2023-03-08T04:58:06.103Z,98790.72
2023-03-08T05:00:32.787Z,98788.75
2023-03-08T05:02:59.513Z,98787.47
2023-03-08T05:05:26.317Z,98790.22
2023-03-08T05:07:53.749Z,98792.00
2023-03-08T05:10:20.549Z,98803.41
2023-03-08T05:12:49.799Z,98795.59
2023-03-08T05:15:16.634Z,98793.16
2023-03-08T05:17:43.519Z,98783.88
2023-03-08T05:20:10.838Z,98764.84
2023-03-08T05:22:55.095Z,98743.19
2023-03-08T05:25:24.253Z,98749.56
2023-03-08T05:27:51.028Z,98761.44
2023-03-08T05:30:21.028Z,98751.84
2023-03-08T05:32:48.002Z,98744.03
2023-03-08T05:35:14.996Z,98748.44
2023-03-08T05:37:41.815Z,98743.22
2023-03-08T05:40:08.985Z,98744.88
2023-03-08T05:42:35.775Z,98751.34
2023-03-08T05:45:02.872Z,98740.31
2023-03-08T05:47:30.556Z,98745.50
2023-03-08T05:49:57.345Z,98739.03
2023-03-08T05:52:24.082Z,98748.63
2023-03-08T05:54:50.900Z,98744.53
2023-03-08T05:57:17.823Z,98746.50
2023-03-08T05:59:44.577Z,98744.06
2023-03-08T06:02:13.565Z,98737.56
2023-03-08T06:04:40.392Z,98741.78
2023-03-08T06:07:07.251Z,98739.97
2023-03-08T06:09:34.283Z,98715.78
2023-03-08T06:12:01.020Z,98718.06
2023-03-08T06:14:27.791Z,98710.72
2023-03-08T06:16:54.645Z,98701.78
2023-03-08T06:19:21.587Z,98684.38
2023-03-08T06:21:48.532Z,98659.97
2023-03-08T06:24:15.302Z,98654.31
2023-03-08T06:26:42.333Z,98650.53
2023-03-08T06:29:09.333Z,98648.28
2023-03-08T06:31:36.172Z,98657.06
2023-03-08T06:34:03.834Z,98654.81
2023-03-08T06:36:30.666Z,98652.50
2023-03-08T06:39:00.008Z,98647.16
2023-03-08T06:41:26.856Z,98652.00
2023-03-08T06:43:53.868Z,98662.75
2023-03-08T06:46:20.811Z,98647.66
2023-03-08T06:48:48.565Z,98663.25
2023-03-08T06:51:15.612Z,98668.78
2023-03-08T06:53:42.665Z,98659.81
2023-03-08T06:56:10.029Z,98667.44
2023-03-08T06:58:37.313Z,98663.06
2023-03-08T07:01:05.955Z,98663.38
2023-03-08T07:03:33.497Z,98665.81
2023-03-08T07:06:00.845Z,98671.31
2023-03-08T07:08:27.948Z,98676.53
2023-03-08T07:10:54.876Z,98677.34
2023-03-08T07:13:24.134Z,98679.28
2023-03-08T07:15:51.900Z,98664.84
2023-03-08T07:18:19.785Z,98670.34
2023-03-08T07:20:46.655Z,98673.31
2023-03-08T07:23:13.768Z,98678.50
2023-03-08T07:25:40.644Z,98685.34
2023-03-08T07:28:07.553Z,98706.97
2023-03-08T07:30:34.417Z,98705.31
2023-03-08T07:33:01.443Z,98702.09
2023-03-08T07:35:28.472Z,98685.31
2023-03-08T07:37:55.330Z,98684.00
2023-03-08T07:40:22.350Z,98665.00
2023-03-08T07:42:49.279Z,98662.84
2023-03-08T07:45:16.250Z,98665.31
2023-03-08T07:47:43.147Z,98672.75
2023-03-08T07:50:10.703Z,98674.03
2023-03-08T07:52:37.698Z,98659.25
2023-03-08T07:55:05.043Z,98660.72
2023-03-08T07:57:31.936Z,98669.31
2023-03-08T07:59:58.967Z,98663.94
2023-03-08T08:02:25.967Z,98669.16
2023-03-08T08:04:52.911Z,98671.25
2023-03-08T08:07:19.861Z,98685.06
2023-03-08T08:09:46.709Z,98690.94
2023-03-08T08:12:13.674Z,98683.75
2023-03-08T08:14:40.776Z,98672.22
2023-03-08T08:17:07.807Z,98669.81
2023-03-08T08:19:37.724Z,98665.56
2023-03-08T08:22:05.154Z,98674.66
2023-03-08T08:24:33.098Z,98669.81
2023-03-08T08:27:00.085Z,98667.00
2023-03-08T08:29:27.162Z,98676.94
2023-03-08T08:31:54.108Z,98676.75
2023-03-08T08:34:23.650Z,98675.44
2023-03-08T08:36:52.144Z,98666.94
2023-03-08T08:39:29.880Z,98677.22
2023-03-08T08:41:59.503Z,98692.03
2023-03-08T08:44:28.351Z,98693.00
2023-03-08T08:47:02.282Z,98701.78
2023-03-08T08:49:29.615Z,98702.13
2023-03-08T08:51:56.684Z,98700.34
2023-03-08T08:54:23.679Z,98701.66
2023-03-08T08:56:50.782Z,98693.66
2023-03-08T08:59:17.874Z,98691.72
2023-03-08T09:01:45.176Z,98674.00
2023-03-08T09:04:13.858Z,98676.44
2023-03-08T09:06:40.995Z,98662.72
2023-03-08T09:09:08.528Z,98635.38
2023-03-08T09:11:39.879Z,98629.47
2023-03-08T09:14:12.339Z,98638.91
2023-03-08T09:16:39.440Z,98641.00
2023-03-08T09:19:06.620Z,98648.78
2023-03-08T09:21:34.350Z,98660.53
2023-03-08T09:24:04.010Z,98673.50
2023-03-08T09:26:31.656Z,98659.16
2023-03-08T09:28:59.501Z,98671.88
2023-03-08T09:31:26.451Z,98668.28
2023-03-08T09:33:53.621Z,98664.88
2023-03-08T09:36:20.638Z,98666.50
2023-03-08T09:38:48.823Z,98669.44
2023-03-08T09:41:18.818Z,98670.91
2023-03-08T09:43:47.988Z,98678.56
2023-03-08T09:46:17.338Z,98666.50
2023-03-08T09:48:47.547Z,98662.72
2023-03-08T09:51:17.706Z,98656.22
2023-03-08T09:53:51.233Z,98654.59
2023-03-08T09:56:21.580Z,98662.56
2023-03-08T09:58:49.989Z,98668.75
2023-03-08T10:01:18.424Z,98666.34
2023-03-08T10:03:50.566Z,98670.09
2023-03-08T10:06:23.508Z,98674.16
2023-03-08T10:08:56.549Z,98667.47
2023-03-08T10:11:26.758Z,98663.09
2023-03-08T10:13:56.589Z,98646.47
2023-03-08T10:16:26.413Z,98642.91
2023-03-08T10:18:56.642Z,98639.78
2023-03-08T10:21:25.360Z,98641.84
2023-03-08T10:23:59.332Z,98646.72
2023-03-08T10:26:27.201Z,98649.00
2023-03-08T10:28:54.383Z,98646.19
2023-03-08T10:31:21.745Z,98654.66
2023-03-08T10:33:50.664Z,98653.69
2023-03-08T10:36:20.596Z,98650.25
2023-03-08T10:38:50.688Z,98650.94
2023-03-08T10:41:18.003Z,98650.78
2023-03-08T10:43:46.388Z,98647.97
2023-03-08T10:46:15.308Z,98645.56
2023-03-08T10:48:42.358Z,98643.25
2023-03-08T10:51:12.399Z,98650.09
2023-03-08T10:53:39.498Z,98638.50
2023-03-08T10:56:22.040Z,98646.78
2023-03-08T10:58:49.381Z,98644.81
2023-03-08T11:01:19.407Z,98655.41
2023-03-08T11:03:47.015Z,98634.56
2023-03-08T11:06:15.122Z,98636.19
2023-03-08T11:08:52.448Z,98636.63
2023-03-08T11:11:19.470Z,98634.31
2023-03-08T11:13:48.713Z,98635.13
2023-03-08T11:16:18.900Z,98638.44
2023-03-08T11:18:49.074Z,98637.00
2023-03-08T11:21:21.893Z,98639.91
2023-03-08T11:23:56.628Z,98641.00
2023-03-08T11:26:28.448Z,98641.13
2023-03-08T11:28:58.552Z,98641.91
2023-03-08T11:31:30.406Z,98636.34
2023-03-08T11:33:57.718Z,98643.81
2023-03-08T11:36:27.698Z,98641.03
2023-03-08T11:38:58.179Z,98635.81
2023-03-08T11:41:32.356Z,98642.03
2023-03-08T11:44:06.974Z,98635.81
2023-03-08T11:46:37.163Z,98628.00
2023-03-08T11:49:04.776Z,98631.75
2023-03-08T11:51:34.790Z,98636.88
2023-03-08T11:54:04.878Z,98632.66
2023-03-08T11:56:39.732Z,98637.22
2023-03-08T11:59:13.757Z,98637.13
2023-03-08T12:01:45.731Z,98643.31
2023-03-08T12:04:15.810Z,98636.13
2023-03-08T12:06:44.112Z,98640.34
2023-03-08T12:09:12.583Z,98640.84
2023-03-08T12:11:42.756Z,98650.22
2023-03-08T12:14:13.715Z,98650.28
2023-03-08T12:16:47.445Z,98644.22
2023-03-08T12:19:17.622Z,98639.94
2023-03-08T12:21:49.865Z,98635.78
2023-03-08T12:24:20.329Z,98627.94
2023-03-08T12:26:50.877Z,98623.22
2023-03-08T12:29:23.704Z,98629.03
2023-03-08T12:31:51.370Z,98633.66
2023-03-08T12:34:21.415Z,98626.16
2023-03-08T12:36:48.459Z,98627.94
2023-03-08T12:39:18.583Z,98625.72
2023-03-08T12:41:56.525Z,98629.38
2023-03-08T12:44:25.344Z,98622.53
2023-03-08T12:47:02.672Z,98609.13
2023-03-08T12:49:33.619Z,98609.13
2023-03-08T12:52:02.458Z,98616.97
2023-03-08T12:54:31.564Z,98620.56
2023-03-08T12:56:58.680Z,98607.53
2023-03-08T12:59:28.638Z,98611.94
2023-03-08T13:02:03.492Z,98614.72
2023-03-08T13:04:41.007Z,98610.03
2023-03-08T13:07:16.734Z,98618.44
2023-03-08T13:09:47.201Z,98617.28
2023-03-08T13:12:17.281Z,98627.88
2023-03-08T13:14:45.777Z,98627.59
2023-03-08T13:17:15.761Z,98635.63
2023-03-08T13:19:42.762Z,98632.00
2023-03-08T13:22:16.553Z,98619.44
2023-03-08T13:24:47.860Z,98618.78
2023-03-08T13:27:18.078Z,98616.56
2023-03-08T13:29:45.330Z,98611.50
2023-03-08T13:32:15.668Z,98612.47
2023-03-08T13:34:45.722Z,98610.31
2023-03-08T13:37:15.783Z,98620.13
2023-03-08T13:39:51.805Z,98616.34
2023-03-08T13:42:24.897Z,98613.41
2023-03-08T13:44:52.780Z,98614.75
2023-03-08T13:47:20.115Z,98599.44
2023-03-08T13:49:48.314Z,98603.31
2023-03-08T13:52:19.541Z,98599.56
2023-03-08T13:54:49.761Z,98602.00
2023-03-08T13:57:19.691Z,98601.63
2023-03-08T13:59:48.937Z,98593.66
2023-03-08T14:02:19.597Z,98590.78
2023-03-08T14:04:46.547Z,98585.38
2023-03-08T14:07:20.888Z,98590.31
2023-03-08T14:09:47.975Z,98573.88
2023-03-08T14:12:17.505Z,98578.56
2023-03-08T14:14:47.278Z,98576.41
2023-03-08T14:17:17.464Z,98573.09
2023-03-08T14:19:44.702Z,98562.00
2023-03-08T14:22:14.507Z,98572.88
2023-03-08T14:24:42.221Z,98555.00
2023-03-08T14:27:12.288Z,98558.25
2023-03-08T14:29:39.273Z,98559.50
2023-03-08T14:32:09.767Z,98554.91
2023-03-08T14:34:39.804Z,98555.53
2023-03-08T14:37:07.159Z,98542.38
2023-03-08T14:39:35.211Z,98539.34
2023-03-08T14:42:05.284Z,98540.47
2023-03-08T14:44:32.450Z,98530.31
2023-03-08T14:47:08.672Z,98526.75
2023-03-08T14:49:35.838Z,98528.72
2023-03-08T14:52:03.248Z,98521.53
2023-03-08T14:54:33.412Z,98531.78
2023-03-08T14:57:02.968Z,98523.97
2023-03-08T14:59:30.062Z,98515.69
2023-03-08T15:01:57.138Z,98518.31
2023-03-08T15:04:25.916Z,98516.50
2023-03-08T15:06:54.169Z,98512.88
2023-03-08T15:09:22.194Z,98502.28
2023-03-08T15:11:50.163Z,98515.31
2023-03-08T15:14:17.964Z,98505.53
2023-03-08T15:16:44.938Z,98501.41
2023-03-08T15:19:14.301Z,98504.19
2023-03-08T15:21:41.726Z,98492.41
2023-03-08T15:24:14.224Z,98495.44
2023-03-08T15:26:41.224Z,98494.63
2023-03-08T15:29:11.689Z,98497.16
2023-03-08T15:31:38.724Z,98496.34
2023-03-08T15:34:05.705Z,98496.53
2023-03-08T15:36:35.922Z,98485.56
2023-03-08T15:39:04.892Z,98495.81
2023-03-08T15:41:32.040Z,98496.97
2023-03-08T15:43:59.005Z,98498.59
2023-03-08T15:46:26.015Z,98503.19
2023-03-08T15:48:52.936Z,98489.69
2023-03-08T15:51:21.469Z,98482.22
2023-03-08T15:53:49.411Z,98465.34
2023-03-08T15:56:16.592Z,98454.44
2023-03-08T15:58:43.488Z,98463.44
2023-03-08T16:01:12.171Z,98463.72
2023-03-08T16:03:39.225Z,98472.69
2023-03-08T16:06:09.422Z,98469.72
2023-03-08T16:08:36.926Z,98474.94
2023-03-08T16:11:07.312Z,98486.81
2023-03-08T16:13:34.232Z,98488.69
2023-03-08T16:16:01.994Z,98487.28
2023-03-08T16:18:30.262Z,98489.88
2023-03-08T16:20:57.891Z,98487.28
2023-03-08T16:23:25.127Z,98496.69
2023-03-08T16:26:00.230Z,98496.19
2023-03-08T16:28:35.669Z,98496.19
2023-03-08T16:31:02.657Z,98494.56
2023-03-08T16:33:29.692Z,98485.13
2023-03-08T16:35:57.017Z,98480.88
2023-03-08T16:38:24.380Z,98479.78
2023-03-08T16:40:55.614Z,98472.16
2023-03-08T16:43:37.313Z,98471.34
2023-03-08T16:46:08.047Z,98471.63
2023-03-08T16:48:35.270Z,98478.91
2023-03-08T16:51:02.256Z,98478.28
2023-03-08T16:53:30.219Z,98480.31
2023-03-08T16:56:00.461Z,98472.34
2023-03-08T16:58:28.316Z,98477.88
2023-03-08T17:00:56.221Z,98477.06
2023-03-08T17:03:26.557Z,98469.91
2023-03-08T17:05:53.686Z,98471.34
2023-03-08T17:08:20.707Z,98473.59
2023-03-08T17:10:48.258Z,98481.94
2023-03-08T17:13:15.478Z,98471.41
2023-03-08T17:15:47.245Z,98464.56
2023-03-08T17:18:14.908Z,98464.94
2023-03-08T17:20:42.403Z,98471.59
2023-03-08T17:23:10.129Z,98472.59
2023-03-08T17:25:40.904Z,98468.97
2023-03-08T17:28:08.466Z,98474.41
2023-03-08T17:30:35.376Z,98481.13
2023-03-08T17:33:02.539Z,98481.94
2023-03-08T17:38:01.345Z,98480.97
2023-03-08T17:40:30.386Z,98477.97
2023-03-08T17:43:01.225Z,98491.28
2023-03-08T17:45:30.652Z,98486.25
2023-03-08T17:48:03.413Z,98483.19
2023-03-08T17:50:32.219Z,98476.53
2023-03-08T17:53:01.378Z,98485.81
2023-03-08T17:55:30.111Z,98491.00
2023-03-08T17:58:02.926Z,98477.06
2023-03-08T18:00:32.173Z,98483.72
2023-03-08T18:03:05.165Z,98478.06
2023-03-08T18:05:34.515Z,98477.25
2023-03-08T18:08:02.681Z,98467.53
2023-03-08T18:10:31.209Z,98463.59
2023-03-08T18:12:59.839Z,98458.66
2023-03-08T18:15:27.916Z,98471.94
2023-03-08T18:17:56.083Z,98465.38
2023-03-08T18:20:27.498Z,98466.66
2023-03-08T18:22:55.457Z,98461.91
2023-03-08T18:25:25.096Z,98464.50
2023-03-08T18:27:53.554Z,98472.34
2023-03-08T18:30:26.191Z,98479.97
2023-03-08T18:32:55.394Z,98482.75
2023-03-08T18:35:24.062Z,98497.22
2023-03-08T18:37:52.791Z,98493.53
2023-03-08T18:40:21.041Z,98501.56
2023-03-08T18:42:48.931Z,98501.34
2023-03-08T18:45:18.966Z,98505.13
2023-03-08T18:47:49.937Z,98504.50
2023-03-08T18:50:19.728Z,98505.94
2023-03-08T18:52:47.828Z,98505.41
2023-03-08T18:55:28.928Z,98497.59
2023-03-08T18:57:56.995Z,98506.22
2023-03-08T19:00:25.373Z,98503.78
2023-03-08T19:02:54.277Z,98505.25
2023-03-08T19:05:23.752Z,98497.75
2023-03-08T19:07:54.734Z,98482.50
2023-03-08T19:10:22.792Z,98474.31
2023-03-08T19:12:50.837Z,98484.56
2023-03-08T19:15:19.909Z,98495.88
2023-03-08T19:17:48.225Z,98493.91
2023-03-08T19:20:16.333Z,98492.75
2023-03-08T19:22:44.205Z,98485.28
2023-03-08T19:25:12.972Z,98487.97
2023-03-08T19:27:40.932Z,98496.63
2023-03-08T19:30:09.325Z,98510.47
2023-03-08T19:32:37.209Z,98507.50
2023-03-08T19:35:05.315Z,98509.28
2023-03-08T19:37:33.370Z,98522.97
2023-03-08T19:40:01.592Z,98519.53
2023-03-08T19:42:29.576Z,98524.56
2023-03-08T19:44:57.488Z,98520.53
2023-03-08T19:47:25.584Z,98509.13
2023-03-08T19:49:54.690Z,98503.25
2023-03-08T19:52:22.533Z,98510.09
2023-03-08T19:54:50.983Z,98496.41
2023-03-08T19:57:19.229Z,98484.19
2023-03-08T19:59:47.093Z,98480.16
2023-03-08T20:02:15.194Z,98476.56
2023-03-08T20:04:43.325Z,98453.09
2023-03-08T20:07:11.270Z,98452.72
2023-03-08T20:09:41.906Z,98445.72
2023-03-08T20:12:10.154Z,98449.59
2023-03-08T20:14:38.321Z,98459.31
2023-03-08T20:17:08.755Z,98452.47
2023-03-08T20:19:41.397Z,98462.91
2023-03-08T20:22:09.299Z,98482.34
2023-03-08T20:24:37.621Z,98496.34
2023-03-08T20:27:06.190Z,98510.00
2023-03-08T20:29:35.172Z,98521.44
2023-03-08T20:32:03.448Z,98513.63
2023-03-08T20:34:33.040Z,98533.31
2023-03-08T20:37:01.576Z,98521.88
2023-03-08T20:39:29.658Z,98532.16
2023-03-08T20:41:59.221Z,98529.53
2023-03-08T20:44:27.241Z,98545.63
2023-03-08T20:46:56.404Z,98566.34
2023-03-08T20:49:25.189Z,98577.22
2023-03-08T20:51:53.180Z,98579.94
2023-03-08T20:54:21.632Z,98590.38
2023-03-08T20:56:49.653Z,98581.53
2023-03-08T20:59:21.067Z,98591.78
2023-03-08T21:01:49.070Z,98590.16
2023-03-08T21:04:17.154Z,98585.75
2023-03-08T21:06:45.358Z,98588.38
2023-03-08T21:09:13.495Z,98583.31
2023-03-08T21:11:41.986Z,98577.84
2023-03-08T21:14:11.130Z,98570.66
2023-03-08T21:16:41.011Z,98575.06
2023-03-08T21:19:09.821Z,98587.94
2023-03-08T21:21:44.260Z,98591.16
2023-03-08T21:24:13.983Z,98595.75
2023-03-08T21:26:42.218Z,98590.97
2023-03-08T21:29:12.365Z,98591.78
2023-03-08T21:31:42.699Z,98597.19
2023-03-08T21:34:12.638Z,98591.34
2023-03-08T21:36:41.049Z,98581.91
2023-03-08T21:39:10.162Z,98588.09
2023-03-08T21:41:39.276Z,98589.56
2023-03-08T21:44:10.167Z,98591.78
2023-03-08T21:46:38.816Z,98601.59
2023-03-08T21:49:07.276Z,98613.84
2023-03-08T21:51:35.229Z,98603.22
2023-03-08T21:54:03.171Z,98617.19
2023-03-08T21:56:31.237Z,98606.38
2023-03-08T21:58:59.260Z,98599.72
2023-03-08T22:01:28.194Z,98588.94
2023-03-08T22:03:56.610Z,98580.28
2023-03-08T22:06:25.039Z,98574.25
2023-03-08T22:08:53.735Z,98562.38
2023-03-08T22:11:21.982Z,98573.44
2023-03-08T22:13:52.131Z,98583.88
2023-03-08T22:16:20.701Z,98583.09
2023-03-08T22:18:49.583Z,98582.91
2023-03-08T22:21:17.661Z,98584.88
2023-03-08T22:23:45.458Z,98592.72
2023-03-08T22:26:14.626Z,98598.56
2023-03-08T22:28:42.609Z,98594.00
2023-03-08T22:31:13.599Z,98588.63
2023-03-08T22:33:41.566Z,98589.75
2023-03-08T22:36:10.396Z,98589.75
2023-03-08T22:38:38.915Z,98594.69
2023-03-08T22:41:09.771Z,98596.19
2023-03-08T22:43:37.965Z,98607.00
2023-03-08T22:46:06.877Z,98615.63
2023-03-08T22:48:34.744Z,98617.78
2023-03-08T22:51:10.687Z,98615.38
2023-03-08T22:53:39.445Z,98610.16
2023-03-08T22:56:08.367Z,98607.69
2023-03-08T22:58:35.940Z,98606.72
2023-03-08T23:01:03.549Z,98613.09
2023-03-08T23:03:32.155Z,98612.28
2023-03-08T23:05:59.646Z,98615.38
2023-03-08T23:08:28.283Z,98615.53
2023-03-08T23:10:55.754Z,98613.72
2023-03-08T23:13:33.338Z,98615.38
2023-03-08T23:16:01.167Z,98616.78
2023-03-08T23:18:28.535Z,98628.03
2023-03-08T23:20:56.030Z,98628.22
2023-03-08T23:23:25.508Z,98632.09
2023-03-08T23:25:52.953Z,98647.94
2023-03-08T23:28:21.302Z,98650.69
2023-03-08T23:30:48.402Z,98661.31
2023-03-08T23:33:15.871Z,98662.31
2023-03-08T23:35:42.981Z,98665.63
2023-03-08T23:38:10.228Z,98671.00
2023-03-08T23:40:39.942Z,98681.16
2023-03-08T23:43:07.800Z,98676.63
2023-03-08T23:45:34.857Z,98678.41
2023-03-08T23:48:03.414Z,98683.97
2023-03-08T23:50:30.920Z,98686.81
2023-03-08T23:52:57.990Z,98681.03
2023-03-08T23:55:25.000Z,98695.19
2023-03-08T23:57:51.975Z,98694.72
